Butuan, Philippines
Current Conditions -  °F | °C
As of 11:00 AM on Sunday 26 Oct 2014 (Local Time) from RPMD Reporting Station
Broken Clouds Broken Clouds  
Wind Chill: 88°   Ceiling: 9000
Heat Index: 98°   Visibility: 4mi
Dew Point: 75°   Wind: 7mph
Humidity: 66%   Direction: 140°SE
Pressure: 29.85"   Gusts: NA
Location:  8.93°N, 125.52°E
Report Text: RPMD 260300Z 14006KT 6000 FEW016 BKN090 31/24 Q1011 RMK A2985
Loading
Personal Weather Stations






























Interactive Weather Map
Tropical Storm Tracking
New forecast layout! Learn more

10-Day Weather Forecast

Advertisements
Track Severe Weather on mobile